sensor_id;sensor_type;location;lat;lon;timestamp;P1;durP1;ratioP1;P2;durP2;ratioP2
57395;SDS011;43222;52.912;6.940;2023-05-10T00:01:13;22.13;;;16.73;;
57395;SDS011;43222;52.912;6.940;2023-05-10T00:03:39;17.92;;;16.05;;
57395;SDS011;43222;52.912;6.940;2023-05-10T00:06:05;18.10;;;16.20;;
57395;SDS011;43222;52.912;6.940;2023-05-10T00:08:31;17.08;;;15.27;;
57395;SDS011;43222;52.912;6.940;2023-05-10T00:10:57;16.25;;;14.18;;
57395;SDS011;43222;52.912;6.940;2023-05-10T00:13:23;9.43;;;8.07;;
57395;SDS011;43222;52.912;6.940;2023-05-10T00:15:49;8.25;;;7.13;;
57395;SDS011;43222;52.912;6.940;2023-05-10T00:18:15;8.90;;;8.00;;
57395;SDS011;43222;52.912;6.940;2023-05-10T00:20:41;9.35;;;8.45;;
57395;SDS011;43222;52.912;6.940;2023-05-10T00:23:07;9.77;;;8.77;;
57395;SDS011;43222;52.912;6.940;2023-05-10T00:25:33;10.38;;;9.32;;
57395;SDS011;43222;52.912;6.940;2023-05-10T00:27:59;10.85;;;9.75;;
57395;SDS011;43222;52.912;6.940;2023-05-10T00:30:26;10.43;;;9.32;;
57395;SDS011;43222;52.912;6.940;2023-05-10T00:32:52;11.70;;;10.60;;
57395;SDS011;43222;52.912;6.940;2023-05-10T00:35:18;11.02;;;8.52;;
57395;SDS011;43222;52.912;6.940;2023-05-10T00:37:45;11.88;;;10.77;;
57395;SDS011;43222;52.912;6.940;2023-05-10T00:40:11;12.88;;;11.57;;
57395;SDS011;43222;52.912;6.940;2023-05-10T00:42:37;11.40;;;10.20;;
57395;SDS011;43222;52.912;6.940;2023-05-10T00:45:03;13.07;;;11.75;;
57395;SDS011;43222;52.912;6.940;2023-05-10T00:47:29;12.77;;;11.40;;
57395;SDS011;43222;52.912;6.940;2023-05-10T00:49:55;11.00;;;9.98;;
57395;SDS011;43222;52.912;6.940;2023-05-10T00:52:22;12.98;;;11.68;;
57395;SDS011;43222;52.912;6.940;2023-05-10T00:54:49;14.98;;;13.07;;
57395;SDS011;43222;52.912;6.940;2023-05-10T00:57:16;13.90;;;12.52;;
57395;SDS011;43222;52.912;6.940;2023-05-10T00:59:42;13.40;;;12.00;;
57395;SDS011;43222;52.912;6.940;2023-05-10T01:02:08;12.63;;;11.35;;
57395;SDS011;43222;52.912;6.940;2023-05-10T01:04:35;12.77;;;11.02;;
57395;SDS011;43222;52.912;6.940;2023-05-10T01:07:01;12.65;;;10.68;;
57395;SDS011;43222;52.912;6.940;2023-05-10T01:09:27;12.55;;;11.35;;
57395;SDS011;43222;52.912;6.940;2023-05-10T01:11:53;13.60;;;10.90;;
57395;SDS011;43222;52.912;6.940;2023-05-10T01:14:20;12.30;;;10.77;;
57395;SDS011;43222;52.912;6.940;2023-05-10T01:16:47;12.10;;;10.77;;
57395;SDS011;43222;52.912;6.940;2023-05-10T01:19:24;11.75;;;10.43;;
57395;SDS011;43222;52.912;6.940;2023-05-10T01:27:17;12.88;;;11.57;;
57395;SDS011;43222;52.912;6.940;2023-05-10T01:35:10;11.98;;;10.27;;
57395;SDS011;43222;52.912;6.940;2023-05-10T01:37:46;12.85;;;9.93;;
57395;SDS011;43222;52.912;6.940;2023-05-10T01:40:26;13.65;;;10.60;;
57395;SDS011;43222;52.912;6.940;2023-05-10T01:42:58;12.65;;;11.10;;
57395;SDS011;43222;52.912;6.940;2023-05-10T01:45:30;16.20;;;11.00;;
57395;SDS011;43222;52.912;6.940;2023-05-10T01:48:05;11.77;;;10.57;;
57395;SDS011;43222;52.912;6.940;2023-05-10T01:50:32;13.32;;;10.60;;
57395;SDS011;43222;52.912;6.940;2023-05-10T01:52:59;11.05;;;9.32;;
57395;SDS011;43222;52.912;6.940;2023-05-10T01:55:27;11.80;;;9.90;;
57395;SDS011;43222;52.912;6.940;2023-05-10T01:58:02;11.60;;;9.95;;
57395;SDS011;43222;52.912;6.940;2023-05-10T02:00:29;12.57;;;11.20;;
57395;SDS011;43222;52.912;6.940;2023-05-10T02:02:56;14.32;;;10.77;;
57395;SDS011;43222;52.912;6.940;2023-05-10T02:05:23;13.40;;;10.40;;
57395;SDS011;43222;52.912;6.940;2023-05-10T02:07:50;11.40;;;10.20;;
57395;SDS011;43222;52.912;6.940;2023-05-10T02:10:17;11.90;;;10.60;;
57395;SDS011;43222;52.912;6.940;2023-05-10T02:12:45;12.38;;;10.35;;
57395;SDS011;43222;52.912;6.940;2023-05-10T02:15:12;12.02;;;10.55;;
57395;SDS011;43222;52.912;6.940;2023-05-10T02:17:40;14.23;;;10.95;;
57395;SDS011;43222;52.912;6.940;2023-05-10T02:20:08;12.45;;;10.25;;
57395;SDS011;43222;52.912;6.940;2023-05-10T02:22:34;11.85;;;10.23;;
57395;SDS011;43222;52.912;6.940;2023-05-10T02:25:01;16.83;;;11.90;;
57395;SDS011;43222;52.912;6.940;2023-05-10T02:27:29;12.18;;;10.18;;
57395;SDS011;43222;52.912;6.940;2023-05-10T02:29:55;12.30;;;10.07;;
57395;SDS011;43222;52.912;6.940;2023-05-10T02:32:22;14.80;;;12.15;;
57395;SDS011;43222;52.912;6.940;2023-05-10T02:34:50;16.25;;;11.25;;
57395;SDS011;43222;52.912;6.940;2023-05-10T02:37:17;12.35;;;10.35;;
57395;SDS011;43222;52.912;6.940;2023-05-10T02:39:45;14.27;;;11.35;;
57395;SDS011;43222;52.912;6.940;2023-05-10T02:42:13;16.15;;;12.05;;
57395;SDS011;43222;52.912;6.940;2023-05-10T02:44:41;14.25;;;11.07;;
57395;SDS011;43222;52.912;6.940;2023-05-10T02:47:08;13.63;;;10.85;;
57395;SDS011;43222;52.912;6.940;2023-05-10T02:49:35;15.90;;;10.77;;
57395;SDS011;43222;52.912;6.940;2023-05-10T02:52:01;14.68;;;11.02;;
57395;SDS011;43222;52.912;6.940;2023-05-10T02:54:33;13.35;;;10.40;;
57395;SDS011;43222;52.912;6.940;2023-05-10T02:57:02;14.73;;;10.60;;
57395;SDS011;43222;52.912;6.940;2023-05-10T02:59:29;14.85;;;10.70;;
57395;SDS011;43222;52.912;6.940;2023-05-10T03:01:55;14.52;;;10.73;;
57395;SDS011;43222;52.912;6.940;2023-05-10T03:04:21;13.48;;;9.98;;
57395;SDS011;43222;52.912;6.940;2023-05-10T03:06:47;10.38;;;9.23;;
57395;SDS011;43222;52.912;6.940;2023-05-10T03:09:13;13.82;;;10.43;;
57395;SDS011;43222;52.912;6.940;2023-05-10T03:17:00;12.98;;;10.48;;
57395;SDS011;43222;52.912;6.940;2023-05-10T03:19:47;12.32;;;10.00;;
57395;SDS011;43222;52.912;6.940;2023-05-10T03:22:20;14.35;;;10.90;;
57395;SDS011;43222;52.912;6.940;2023-05-10T03:24:47;12.90;;;9.25;;
57395;SDS011;43222;52.912;6.940;2023-05-10T03:27:14;12.35;;;9.57;;
57395;SDS011;43222;52.912;6.940;2023-05-10T03:29:41;11.90;;;9.60;;
57395;SDS011;43222;52.912;6.940;2023-05-10T03:32:07;14.93;;;11.82;;
57395;SDS011;43222;52.912;6.940;2023-05-10T03:34:34;11.95;;;9.65;;
57395;SDS011;43222;52.912;6.940;2023-05-10T03:37:01;14.52;;;11.70;;
57395;SDS011;43222;52.912;6.940;2023-05-10T03:39:27;12.05;;;9.60;;
57395;SDS011;43222;52.912;6.940;2023-05-10T03:41:53;12.98;;;9.70;;
57395;SDS011;43222;52.912;6.940;2023-05-10T03:44:19;13.23;;;10.48;;
57395;SDS011;43222;52.912;6.940;2023-05-10T03:46:45;13.27;;;10.25;;
57395;SDS011;43222;52.912;6.940;2023-05-10T03:49:11;12.85;;;10.07;;
57395;SDS011;43222;52.912;6.940;2023-05-10T03:51:37;12.82;;;10.50;;
57395;SDS011;43222;52.912;6.940;2023-05-10T03:54:03;14.10;;;10.48;;
57395;SDS011;43222;52.912;6.940;2023-05-10T03:56:29;12.45;;;10.25;;
57395;SDS011;43222;52.912;6.940;2023-05-10T03:58:55;13.40;;;10.63;;
57395;SDS011;43222;52.912;6.940;2023-05-10T04:01:21;12.57;;;10.43;;
57395;SDS011;43222;52.912;6.940;2023-05-10T04:03:47;11.07;;;8.90;;
57395;SDS011;43222;52.912;6.940;2023-05-10T04:06:13;13.55;;;10.23;;
57395;SDS011;43222;52.912;6.940;2023-05-10T04:08:39;14.00;;;10.82;;
57395;SDS011;43222;52.912;6.940;2023-05-10T04:11:09;13.20;;;10.88;;
57395;SDS011;43222;52.912;6.940;2023-05-10T04:13:36;13.65;;;10.35;;
57395;SDS011;43222;52.912;6.940;2023-05-10T04:16:03;12.85;;;10.02;;
57395;SDS011;43222;52.912;6.940;2023-05-10T04:18:29;11.70;;;9.60;;
57395;SDS011;43222;52.912;6.940;2023-05-10T04:20:55;12.73;;;10.23;;
57395;SDS011;43222;52.912;6.940;2023-05-10T04:23:21;11.77;;;9.70;;
57395;SDS011;43222;52.912;6.940;2023-05-10T04:25:48;12.45;;;10.45;;
57395;SDS011;43222;52.912;6.940;2023-05-10T04:28:14;12.77;;;9.57;;
57395;SDS011;43222;52.912;6.940;2023-05-10T04:30:40;12.25;;;8.95;;
57395;SDS011;43222;52.912;6.940;2023-05-10T04:33:06;10.27;;;8.40;;
57395;SDS011;43222;52.912;6.940;2023-05-10T04:35:32;10.23;;;8.80;;
57395;SDS011;43222;52.912;6.940;2023-05-10T04:37:59;9.98;;;8.27;;
57395;SDS011;43222;52.912;6.940;2023-05-10T04:40:25;10.02;;;7.50;;
57395;SDS011;43222;52.912;6.940;2023-05-10T04:42:51;12.05;;;7.70;;
57395;SDS011;43222;52.912;6.940;2023-05-10T04:45:17;11.05;;;7.70;;
57395;SDS011;43222;52.912;6.940;2023-05-10T04:47:43;8.75;;;7.32;;
57395;SDS011;43222;52.912;6.940;2023-05-10T04:50:10;8.88;;;7.40;;
57395;SDS011;43222;52.912;6.940;2023-05-10T04:52:36;9.20;;;7.32;;
57395;SDS011;43222;52.912;6.940;2023-05-10T04:55:02;9.80;;;7.63;;
57395;SDS011;43222;52.912;6.940;2023-05-10T04:57:28;9.02;;;7.70;;
57395;SDS011;43222;52.912;6.940;2023-05-10T04:59:54;9.18;;;7.07;;
57395;SDS011;43222;52.912;6.940;2023-05-10T05:02:20;9.20;;;7.47;;
57395;SDS011;43222;52.912;6.940;2023-05-10T05:04:46;10.98;;;7.70;;
57395;SDS011;43222;52.912;6.940;2023-05-10T05:07:12;10.00;;;7.43;;
57395;SDS011;43222;52.912;6.940;2023-05-10T05:09:38;11.18;;;7.57;;
57395;SDS011;43222;52.912;6.940;2023-05-10T05:12:04;9.75;;;7.68;;
57395;SDS011;43222;52.912;6.940;2023-05-10T05:14:31;9.40;;;8.00;;
57395;SDS011;43222;52.912;6.940;2023-05-10T05:16:57;9.57;;;7.78;;
57395;SDS011;43222;52.912;6.940;2023-05-10T05:19:23;8.95;;;6.75;;
57395;SDS011;43222;52.912;6.940;2023-05-10T05:21:49;11.38;;;6.78;;
57395;SDS011;43222;52.912;6.940;2023-05-10T05:24:15;8.35;;;7.05;;
57395;SDS011;43222;52.912;6.940;2023-05-10T05:26:41;8.63;;;7.10;;
57395;SDS011;43222;52.912;6.940;2023-05-10T05:29:07;9.27;;;7.35;;
57395;SDS011;43222;52.912;6.940;2023-05-10T05:31:33;9.20;;;7.30;;
57395;SDS011;43222;52.912;6.940;2023-05-10T05:33:59;9.52;;;7.28;;
57395;SDS011;43222;52.912;6.940;2023-05-10T05:36:25;9.45;;;7.28;;
57395;SDS011;43222;52.912;6.940;2023-05-10T05:38:51;10.00;;;7.97;;
57395;SDS011;43222;52.912;6.940;2023-05-10T05:41:17;10.57;;;7.50;;
57395;SDS011;43222;52.912;6.940;2023-05-10T05:43:43;10.60;;;7.15;;
57395;SDS011;43222;52.912;6.940;2023-05-10T05:46:09;9.73;;;7.03;;
57395;SDS011;43222;52.912;6.940;2023-05-10T05:48:36;9.75;;;7.43;;
57395;SDS011;43222;52.912;6.940;2023-05-10T05:51:02;9.95;;;7.32;;
57395;SDS011;43222;52.912;6.940;2023-05-10T05:53:28;9.10;;;7.60;;
57395;SDS011;43222;52.912;6.940;2023-05-10T05:55:54;10.77;;;7.70;;
57395;SDS011;43222;52.912;6.940;2023-05-10T05:58:21;9.75;;;7.65;;
57395;SDS011;43222;52.912;6.940;2023-05-10T06:00:47;11.35;;;7.45;;
57395;SDS011;43222;52.912;6.940;2023-05-10T06:03:17;9.40;;;7.35;;
57395;SDS011;43222;52.912;6.940;2023-05-10T06:05:43;10.32;;;7.60;;
57395;SDS011;43222;52.912;6.940;2023-05-10T06:08:09;9.93;;;7.10;;
57395;SDS011;43222;52.912;6.940;2023-05-10T06:10:35;12.65;;;6.93;;
57395;SDS011;43222;52.912;6.940;2023-05-10T06:13:02;9.38;;;7.28;;
57395;SDS011;43222;52.912;6.940;2023-05-10T06:15:28;12.15;;;8.10;;
57395;SDS011;43222;52.912;6.940;2023-05-10T06:17:54;11.00;;;8.10;;
57395;SDS011;43222;52.912;6.940;2023-05-10T06:20:20;10.48;;;7.28;;
57395;SDS011;43222;52.912;6.940;2023-05-10T06:22:46;10.02;;;7.10;;
57395;SDS011;43222;52.912;6.940;2023-05-10T06:25:12;9.63;;;6.60;;
57395;SDS011;43222;52.912;6.940;2023-05-10T06:27:39;10.73;;;7.15;;
57395;SDS011;43222;52.912;6.940;2023-05-10T06:30:05;10.27;;;7.72;;
57395;SDS011;43222;52.912;6.940;2023-05-10T06:32:33;10.60;;;7.72;;
57395;SDS011;43222;52.912;6.940;2023-05-10T06:34:59;9.77;;;7.05;;
57395;SDS011;43222;52.912;6.940;2023-05-10T06:37:25;10.77;;;7.50;;
57395;SDS011;43222;52.912;6.940;2023-05-10T06:39:51;11.70;;;7.72;;
57395;SDS011;43222;52.912;6.940;2023-05-10T06:42:17;11.82;;;8.40;;
57395;SDS011;43222;52.912;6.940;2023-05-10T06:44:43;10.07;;;7.38;;
57395;SDS011;43222;52.912;6.940;2023-05-10T06:47:09;12.38;;;7.25;;
57395;SDS011;43222;52.912;6.940;2023-05-10T06:49:35;12.90;;;8.32;;
57395;SDS011;43222;52.912;6.940;2023-05-10T06:52:02;13.02;;;7.40;;
57395;SDS011;43222;52.912;6.940;2023-05-10T06:54:29;12.00;;;7.90;;
57395;SDS011;43222;52.912;6.940;2023-05-10T06:56:55;10.38;;;7.60;;
57395;SDS011;43222;52.912;6.940;2023-05-10T06:59:21;10.30;;;6.97;;
57395;SDS011;43222;52.912;6.940;2023-05-10T07:01:47;9.68;;;6.88;;
57395;SDS011;43222;52.912;6.940;2023-05-10T07:04:13;11.93;;;7.30;;
57395;SDS011;43222;52.912;6.940;2023-05-10T07:06:39;8.95;;;6.50;;
57395;SDS011;43222;52.912;6.940;2023-05-10T07:09:05;10.38;;;6.65;;
57395;SDS011;43222;52.912;6.940;2023-05-10T07:11:32;7.75;;;5.75;;
57395;SDS011;43222;52.912;6.940;2023-05-10T07:13:58;7.70;;;5.22;;
57395;SDS011;43222;52.912;6.940;2023-05-10T07:16:25;7.82;;;5.40;;
57395;SDS011;43222;52.912;6.940;2023-05-10T07:18:51;8.25;;;5.47;;
57395;SDS011;43222;52.912;6.940;2023-05-10T07:21:18;7.47;;;5.00;;
57395;SDS011;43222;52.912;6.940;2023-05-10T07:23:44;7.78;;;5.38;;
57395;SDS011;43222;52.912;6.940;2023-05-10T07:26:10;11.70;;;5.15;;
57395;SDS011;43222;52.912;6.940;2023-05-10T07:28:36;8.18;;;4.30;;
57395;SDS011;43222;52.912;6.940;2023-05-10T07:31:04;8.75;;;5.05;;
57395;SDS011;43222;52.912;6.940;2023-05-10T07:33:30;8.57;;;4.85;;
57395;SDS011;43222;52.912;6.940;2023-05-10T07:35:56;7.25;;;4.70;;
57395;SDS011;43222;52.912;6.940;2023-05-10T07:38:22;12.02;;;5.30;;
57395;SDS011;43222;52.912;6.940;2023-05-10T07:40:48;8.38;;;4.90;;
57395;SDS011;43222;52.912;6.940;2023-05-10T07:43:14;8.80;;;5.25;;
57395;SDS011;43222;52.912;6.940;2023-05-10T07:45:40;7.45;;;5.30;;
57395;SDS011;43222;52.912;6.940;2023-05-10T07:48:06;6.78;;;4.80;;
57395;SDS011;43222;52.912;6.940;2023-05-10T07:50:32;6.35;;;4.25;;
57395;SDS011;43222;52.912;6.940;2023-05-10T07:52:58;6.10;;;4.03;;
57395;SDS011;43222;52.912;6.940;2023-05-10T07:55:25;5.95;;;3.60;;
57395;SDS011;43222;52.912;6.940;2023-05-10T07:57:51;7.82;;;4.32;;
57395;SDS011;43222;52.912;6.940;2023-05-10T08:00:18;6.57;;;4.00;;
57395;SDS011;43222;52.912;6.940;2023-05-10T08:02:44;6.97;;;2.92;;
57395;SDS011;43222;52.912;6.940;2023-05-10T08:05:10;5.32;;;2.95;;
57395;SDS011;43222;52.912;6.940;2023-05-10T08:07:36;5.68;;;2.97;;
57395;SDS011;43222;52.912;6.940;2023-05-10T08:10:03;4.40;;;2.53;;
57395;SDS011;43222;52.912;6.940;2023-05-10T08:12:29;4.88;;;2.50;;
57395;SDS011;43222;52.912;6.940;2023-05-10T08:14:55;5.55;;;2.40;;
57395;SDS011;43222;52.912;6.940;2023-05-10T08:17:21;4.57;;;2.42;;
57395;SDS011;43222;52.912;6.940;2023-05-10T08:19:47;4.30;;;2.00;;
57395;SDS011;43222;52.912;6.940;2023-05-10T08:22:13;4.53;;;2.13;;
57395;SDS011;43222;52.912;6.940;2023-05-10T08:24:39;7.72;;;2.40;;
57395;SDS011;43222;52.912;6.940;2023-05-10T08:27:07;9.07;;;2.33;;
57395;SDS011;43222;52.912;6.940;2023-05-10T08:29:33;4.70;;;2.35;;
57395;SDS011;43222;52.912;6.940;2023-05-10T08:31:59;5.82;;;2.35;;
57395;SDS011;43222;52.912;6.940;2023-05-10T08:34:26;3.88;;;2.15;;
57395;SDS011;43222;52.912;6.940;2023-05-10T08:36:52;4.85;;;2.08;;
57395;SDS011;43222;52.912;6.940;2023-05-10T08:39:18;6.82;;;2.47;;
57395;SDS011;43222;52.912;6.940;2023-05-10T08:41:44;4.13;;;1.80;;
57395;SDS011;43222;52.912;6.940;2023-05-10T08:44:12;6.20;;;2.50;;
57395;SDS011;43222;52.912;6.940;2023-05-10T08:46:38;4.80;;;2.58;;
57395;SDS011;43222;52.912;6.940;2023-05-10T08:49:09;4.70;;;2.60;;
57395;SDS011;43222;52.912;6.940;2023-05-10T08:51:38;5.07;;;2.50;;
57395;SDS011;43222;52.912;6.940;2023-05-10T08:54:06;5.68;;;2.70;;
57395;SDS011;43222;52.912;6.940;2023-05-10T08:56:32;4.60;;;2.70;;
57395;SDS011;43222;52.912;6.940;2023-05-10T08:58:58;6.22;;;2.90;;
57395;SDS011;43222;52.912;6.940;2023-05-10T09:01:24;5.03;;;2.40;;
57395;SDS011;43222;52.912;6.940;2023-05-10T09:03:51;5.78;;;2.75;;
57395;SDS011;43222;52.912;6.940;2023-05-10T09:06:17;5.75;;;2.50;;
57395;SDS011;43222;52.912;6.940;2023-05-10T09:08:43;4.80;;;2.63;;
57395;SDS011;43222;52.912;6.940;2023-05-10T09:11:11;4.45;;;2.88;;
57395;SDS011;43222;52.912;6.940;2023-05-10T09:13:37;5.20;;;3.05;;
57395;SDS011;43222;52.912;6.940;2023-05-10T09:16:03;4.82;;;3.30;;
57395;SDS011;43222;52.912;6.940;2023-05-10T09:18:30;5.25;;;3.10;;
57395;SDS011;43222;52.912;6.940;2023-05-10T09:20:56;7.60;;;3.30;;
57395;SDS011;43222;52.912;6.940;2023-05-10T09:23:22;5.70;;;3.42;;
57395;SDS011;43222;52.912;6.940;2023-05-10T09:26:05;6.25;;;3.35;;
57395;SDS011;43222;52.912;6.940;2023-05-10T09:28:32;7.00;;;3.42;;
57395;SDS011;43222;52.912;6.940;2023-05-10T09:30:58;5.95;;;3.15;;
57395;SDS011;43222;52.912;6.940;2023-05-10T09:33:24;5.18;;;3.55;;
57395;SDS011;43222;52.912;6.940;2023-05-10T09:35:51;9.25;;;3.30;;
57395;SDS011;43222;52.912;6.940;2023-05-10T09:38:17;6.35;;;2.88;;
57395;SDS011;43222;52.912;6.940;2023-05-10T09:40:50;5.05;;;2.85;;
57395;SDS011;43222;52.912;6.940;2023-05-10T09:43:19;5.07;;;3.25;;
57395;SDS011;43222;52.912;6.940;2023-05-10T09:45:45;5.63;;;3.25;;
57395;SDS011;43222;52.912;6.940;2023-05-10T09:50:42;3.90;;;1.92;;
57395;SDS011;43222;52.912;6.940;2023-05-10T09:53:09;4.40;;;1.80;;
57395;SDS011;43222;52.912;6.940;2023-05-10T09:58:04;3.10;;;1.55;;
57395;SDS011;43222;52.912;6.940;2023-05-10T10:00:35;3.25;;;1.48;;
57395;SDS011;43222;52.912;6.940;2023-05-10T10:03:01;3.30;;;1.10;;
57395;SDS011;43222;52.912;6.940;2023-05-10T10:05:31;2.88;;;0.90;;
57395;SDS011;43222;52.912;6.940;2023-05-10T10:07:58;3.70;;;1.27;;
57395;SDS011;43222;52.912;6.940;2023-05-10T10:10:25;3.38;;;1.42;;
57395;SDS011;43222;52.912;6.940;2023-05-10T10:12:51;4.15;;;1.88;;
57395;SDS011;43222;52.912;6.940;2023-05-10T10:15:18;4.82;;;2.55;;
57395;SDS011;43222;52.912;6.940;2023-05-10T10:17:44;4.88;;;2.38;;
57395;SDS011;43222;52.912;6.940;2023-05-10T10:20:11;5.32;;;2.83;;
57395;SDS011;43222;52.912;6.940;2023-05-10T10:22:37;5.10;;;2.72;;
57395;SDS011;43222;52.912;6.940;2023-05-10T10:25:04;5.07;;;2.65;;
57395;SDS011;43222;52.912;6.940;2023-05-10T10:35:29;4.68;;;2.70;;
57395;SDS011;43222;52.912;6.940;2023-05-10T10:37:55;5.57;;;2.90;;
57395;SDS011;43222;52.912;6.940;2023-05-10T10:40:25;4.72;;;2.97;;
57395;SDS011;43222;52.912;6.940;2023-05-10T10:42:52;5.22;;;3.00;;
57395;SDS011;43222;52.912;6.940;2023-05-10T10:45:18;5.38;;;3.50;;
57395;SDS011;43222;52.912;6.940;2023-05-10T10:47:45;5.90;;;3.72;;
57395;SDS011;43222;52.912;6.940;2023-05-10T10:50:11;5.80;;;3.63;;
57395;SDS011;43222;52.912;6.940;2023-05-10T10:52:44;5.85;;;3.90;;
57395;SDS011;43222;52.912;6.940;2023-05-10T11:00:21;6.45;;;3.70;;
57395;SDS011;43222;52.912;6.940;2023-05-10T11:02:48;6.47;;;3.78;;
57395;SDS011;43222;52.912;6.940;2023-05-10T11:07:53;5.32;;;3.13;;
57395;SDS011;43222;52.912;6.940;2023-05-10T11:10:20;10.30;;;3.72;;
57395;SDS011;43222;52.912;6.940;2023-05-10T11:12:53;4.90;;;2.92;;
57395;SDS011;43222;52.912;6.940;2023-05-10T11:15:20;7.03;;;3.60;;
57395;SDS011;43222;52.912;6.940;2023-05-10T11:17:53;7.50;;;2.80;;
57395;SDS011;43222;52.912;6.940;2023-05-10T11:20:20;5.72;;;3.10;;
57395;SDS011;43222;52.912;6.940;2023-05-10T11:22:53;6.78;;;3.78;;
57395;SDS011;43222;52.912;6.940;2023-05-10T11:25:19;12.93;;;3.92;;
57395;SDS011;43222;52.912;6.940;2023-05-10T11:27:47;15.20;;;3.83;;
57395;SDS011;43222;52.912;6.940;2023-05-10T11:30:14;6.43;;;3.65;;
57395;SDS011;43222;52.912;6.940;2023-05-10T11:32:40;6.00;;;3.20;;
57395;SDS011;43222;52.912;6.940;2023-05-10T11:35:12;7.38;;;3.65;;
57395;SDS011;43222;52.912;6.940;2023-05-10T11:37:38;7.30;;;3.95;;
57395;SDS011;43222;52.912;6.940;2023-05-10T11:40:08;8.18;;;4.10;;
57395;SDS011;43222;52.912;6.940;2023-05-10T11:42:38;7.25;;;3.60;;
57395;SDS011;43222;52.912;6.940;2023-05-10T11:45:04;7.55;;;3.67;;
57395;SDS011;43222;52.912;6.940;2023-05-10T11:47:31;6.57;;;3.40;;
57395;SDS011;43222;52.912;6.940;2023-05-10T11:49:57;7.47;;;4.07;;
57395;SDS011;43222;52.912;6.940;2023-05-10T11:52:23;7.45;;;3.92;;
57395;SDS011;43222;52.912;6.940;2023-05-10T11:54:52;9.07;;;3.75;;
57395;SDS011;43222;52.912;6.940;2023-05-10T11:57:19;8.88;;;3.92;;
57395;SDS011;43222;52.912;6.940;2023-05-10T11:59:46;8.93;;;3.88;;
57395;SDS011;43222;52.912;6.940;2023-05-10T12:02:13;7.05;;;3.75;;
57395;SDS011;43222;52.912;6.940;2023-05-10T12:04:39;10.77;;;3.78;;
57395;SDS011;43222;52.912;6.940;2023-05-10T12:07:06;6.72;;;3.70;;
57395;SDS011;43222;52.912;6.940;2023-05-10T12:09:32;7.45;;;3.47;;
57395;SDS011;43222;52.912;6.940;2023-05-10T12:11:58;7.85;;;3.75;;
57395;SDS011;43222;52.912;6.940;2023-05-10T12:14:24;7.30;;;3.72;;
57395;SDS011;43222;52.912;6.940;2023-05-10T12:16:50;6.10;;;3.80;;
57395;SDS011;43222;52.912;6.940;2023-05-10T12:19:20;6.80;;;3.63;;
57395;SDS011;43222;52.912;6.940;2023-05-10T12:21:46;6.78;;;4.10;;
57395;SDS011;43222;52.912;6.940;2023-05-10T12:24:12;8.00;;;3.70;;
57395;SDS011;43222;52.912;6.940;2023-05-10T12:26:41;6.78;;;3.58;;
57395;SDS011;43222;52.912;6.940;2023-05-10T12:29:19;6.78;;;3.33;;
57395;SDS011;43222;52.912;6.940;2023-05-10T12:31:55;6.75;;;4.18;;
57395;SDS011;43222;52.912;6.940;2023-05-10T12:34:34;6.78;;;4.00;;
57395;SDS011;43222;52.912;6.940;2023-05-10T12:37:03;7.85;;;3.60;;
57395;SDS011;43222;52.912;6.940;2023-05-10T12:39:40;7.00;;;3.42;;
57395;SDS011;43222;52.912;6.940;2023-05-10T12:42:06;6.95;;;4.22;;
57395;SDS011;43222;52.912;6.940;2023-05-10T12:44:32;6.20;;;3.60;;
57395;SDS011;43222;52.912;6.940;2023-05-10T12:46:58;6.65;;;3.83;;
57395;SDS011;43222;52.912;6.940;2023-05-10T12:49:24;6.25;;;3.70;;
57395;SDS011;43222;52.912;6.940;2023-05-10T12:51:50;6.28;;;3.83;;
57395;SDS011;43222;52.912;6.940;2023-05-10T12:54:16;7.05;;;4.05;;
57395;SDS011;43222;52.912;6.940;2023-05-10T12:56:43;7.72;;;4.32;;
57395;SDS011;43222;52.912;6.940;2023-05-10T12:59:09;7.13;;;3.92;;
57395;SDS011;43222;52.912;6.940;2023-05-10T13:01:35;7.57;;;4.03;;
57395;SDS011;43222;52.912;6.940;2023-05-10T13:04:01;8.85;;;4.13;;
57395;SDS011;43222;52.912;6.940;2023-05-10T13:06:27;9.57;;;4.60;;
57395;SDS011;43222;52.912;6.940;2023-05-10T13:08:53;8.00;;;4.97;;
57395;SDS011;43222;52.912;6.940;2023-05-10T13:11:19;8.38;;;4.57;;
57395;SDS011;43222;52.912;6.940;2023-05-10T13:13:46;9.13;;;5.25;;
57395;SDS011;43222;52.912;6.940;2023-05-10T13:16:12;10.25;;;5.00;;
57395;SDS011;43222;52.912;6.940;2023-05-10T13:18:38;8.35;;;5.15;;
57395;SDS011;43222;52.912;6.940;2023-05-10T13:21:04;8.18;;;5.30;;
57395;SDS011;43222;52.912;6.940;2023-05-10T13:23:30;9.55;;;5.53;;
57395;SDS011;43222;52.912;6.940;2023-05-10T13:25:56;9.55;;;5.40;;
57395;SDS011;43222;52.912;6.940;2023-05-10T13:28:22;8.00;;;5.53;;
57395;SDS011;43222;52.912;6.940;2023-05-10T13:30:50;8.32;;;4.85;;
57395;SDS011;43222;52.912;6.940;2023-05-10T13:33:16;8.60;;;5.03;;
57395;SDS011;43222;52.912;6.940;2023-05-10T13:35:42;9.60;;;4.80;;
57395;SDS011;43222;52.912;6.940;2023-05-10T13:38:08;7.15;;;5.40;;
57395;SDS011;43222;52.912;6.940;2023-05-10T13:40:35;10.07;;;5.05;;
57395;SDS011;43222;52.912;6.940;2023-05-10T13:43:01;8.23;;;6.15;;
57395;SDS011;43222;52.912;6.940;2023-05-10T13:45:27;7.47;;;5.80;;
57395;SDS011;43222;52.912;6.940;2023-05-10T13:47:53;9.10;;;5.53;;
57395;SDS011;43222;52.912;6.940;2023-05-10T13:50:19;10.45;;;5.78;;
57395;SDS011;43222;52.912;6.940;2023-05-10T13:52:45;8.10;;;5.82;;
57395;SDS011;43222;52.912;6.940;2023-05-10T13:55:12;8.52;;;5.10;;
57395;SDS011;43222;52.912;6.940;2023-05-10T13:57:38;7.82;;;5.50;;
57395;SDS011;43222;52.912;6.940;2023-05-10T14:00:04;7.97;;;5.18;;
57395;SDS011;43222;52.912;6.940;2023-05-10T14:02:30;9.15;;;5.10;;
57395;SDS011;43222;52.912;6.940;2023-05-10T14:04:56;8.15;;;5.15;;
57395;SDS011;43222;52.912;6.940;2023-05-10T14:07:23;9.45;;;5.65;;
57395;SDS011;43222;52.912;6.940;2023-05-10T14:09:49;10.27;;;5.82;;
57395;SDS011;43222;52.912;6.940;2023-05-10T14:12:15;10.98;;;6.60;;
57395;SDS011;43222;52.912;6.940;2023-05-10T14:14:41;9.75;;;6.22;;
57395;SDS011;43222;52.912;6.940;2023-05-10T14:17:07;10.18;;;6.70;;
57395;SDS011;43222;52.912;6.940;2023-05-10T14:19:33;9.50;;;6.50;;
57395;SDS011;43222;52.912;6.940;2023-05-10T14:21:59;9.77;;;6.80;;
57395;SDS011;43222;52.912;6.940;2023-05-10T14:24:25;11.90;;;6.85;;
57395;SDS011;43222;52.912;6.940;2023-05-10T14:26:51;8.70;;;6.47;;
57395;SDS011;43222;52.912;6.940;2023-05-10T14:29:19;9.82;;;6.63;;
57395;SDS011;43222;52.912;6.940;2023-05-10T14:31:45;10.27;;;6.68;;
57395;SDS011;43222;52.912;6.940;2023-05-10T14:34:11;12.43;;;6.53;;
57395;SDS011;43222;52.912;6.940;2023-05-10T14:36:37;9.18;;;5.88;;
57395;SDS011;43222;52.912;6.940;2023-05-10T14:39:04;9.98;;;6.05;;
57395;SDS011;43222;52.912;6.940;2023-05-10T14:41:31;8.25;;;5.13;;
57395;SDS011;43222;52.912;6.940;2023-05-10T14:43:57;10.55;;;5.28;;
57395;SDS011;43222;52.912;6.940;2023-05-10T14:46:23;9.10;;;5.60;;
57395;SDS011;43222;52.912;6.940;2023-05-10T14:48:49;10.07;;;5.43;;
57395;SDS011;43222;52.912;6.940;2023-05-10T14:51:15;8.98;;;5.55;;
57395;SDS011;43222;52.912;6.940;2023-05-10T14:53:42;9.73;;;5.47;;
57395;SDS011;43222;52.912;6.940;2023-05-10T14:56:08;8.73;;;5.47;;
57395;SDS011;43222;52.912;6.940;2023-05-10T14:58:34;12.45;;;6.70;;
57395;SDS011;43222;52.912;6.940;2023-05-10T15:01:00;9.50;;;5.45;;
57395;SDS011;43222;52.912;6.940;2023-05-10T15:03:26;10.55;;;6.18;;
57395;SDS011;43222;52.912;6.940;2023-05-10T15:05:52;10.18;;;6.03;;
57395;SDS011;43222;52.912;6.940;2023-05-10T15:08:18;11.93;;;5.97;;
57395;SDS011;43222;52.912;6.940;2023-05-10T15:10:44;10.20;;;5.50;;
57395;SDS011;43222;52.912;6.940;2023-05-10T15:13:11;9.45;;;5.47;;